createdAt,value
2018-09-22T00:01:33.246Z,11.60
2018-09-22T00:04:02.138Z,11.50
2018-09-22T00:06:31.109Z,11.60
2018-09-22T00:09:00.000Z,11.50
2018-09-22T00:11:28.818Z,11.50
2018-09-22T00:13:57.656Z,11.50
2018-09-22T00:16:26.517Z,11.50
2018-09-22T00:18:55.330Z,11.50
2018-09-22T00:21:24.260Z,11.50
2018-09-22T00:23:53.252Z,11.50
2018-09-22T00:26:22.125Z,11.50
2018-09-22T00:28:50.898Z,11.50
2018-09-22T00:31:19.720Z,11.50
2018-09-22T00:33:48.594Z,11.60
2018-09-22T00:36:17.557Z,11.50
2018-09-22T00:38:46.501Z,11.60
2018-09-22T00:41:15.482Z,11.60
2018-09-22T00:43:44.261Z,11.60
2018-09-22T00:46:13.248Z,11.60
2018-09-22T00:48:42.281Z,11.60
2018-09-22T00:51:11.238Z,11.60
2018-09-22T00:53:40.193Z,11.70
2018-09-22T00:56:09.078Z,11.70
2018-09-22T00:58:38.033Z,11.70
2018-09-22T01:01:06.885Z,11.70
2018-09-22T01:03:35.906Z,11.70
2018-09-22T01:06:04.815Z,11.70
2018-09-22T01:08:33.915Z,11.70
2018-09-22T01:11:02.873Z,11.70
2018-09-22T01:13:31.698Z,11.70
2018-09-22T01:16:00.735Z,11.80
2018-09-22T01:18:29.638Z,11.80
2018-09-22T01:20:58.598Z,11.80
2018-09-22T01:23:27.473Z,11.80
2018-09-22T01:25:56.337Z,11.90
2018-09-22T01:28:25.277Z,11.80
2018-09-22T01:30:54.136Z,11.90
2018-09-22T01:33:23.094Z,11.90
2018-09-22T01:35:51.985Z,11.90
2018-09-22T01:38:20.841Z,11.90
2018-09-22T01:40:49.713Z,11.80
2018-09-22T01:43:18.537Z,11.80
2018-09-22T01:45:47.292Z,11.80
2018-09-22T01:48:16.353Z,11.80
2018-09-22T01:50:45.283Z,11.80
2018-09-22T01:53:14.121Z,11.70
2018-09-22T01:55:43.081Z,11.60
2018-09-22T01:58:11.989Z,11.50
2018-09-22T02:00:41.010Z,11.50
2018-09-22T02:03:10.002Z,11.40
2018-09-22T02:05:38.868Z,11.40
2018-09-22T02:08:07.818Z,11.30
2018-09-22T02:10:36.712Z,11.20
2018-09-22T02:13:05.497Z,11.20
2018-09-22T02:15:33.949Z,11.20
2018-09-22T02:18:03.769Z,11.10
2018-09-22T02:20:32.701Z,11.10
2018-09-22T02:23:01.713Z,11.10
2018-09-22T02:25:30.596Z,11.10
2018-09-22T02:27:59.489Z,11.20
2018-09-22T02:30:28.312Z,11.20
2018-09-22T02:32:57.207Z,11.30
2018-09-22T02:35:26.094Z,11.30
2018-09-22T02:37:54.922Z,11.40
2018-09-22T02:40:23.924Z,11.40
2018-09-22T02:42:52.832Z,11.40
2018-09-22T02:45:21.781Z,11.40
2018-09-22T02:47:50.581Z,11.30
2018-09-22T02:50:19.454Z,11.30
2018-09-22T02:52:48.328Z,11.30
2018-09-22T02:55:17.254Z,11.40
2018-09-22T02:57:46.114Z,11.40
2018-09-22T03:00:15.093Z,11.40
2018-09-22T03:02:44.141Z,11.40
2018-09-22T03:05:13.042Z,11.30
2018-09-22T03:07:41.974Z,11.30
2018-09-22T03:10:10.794Z,11.30
2018-09-22T03:12:39.850Z,11.30
2018-09-22T03:15:09.153Z,11.30
2018-09-22T03:17:37.650Z,11.30
2018-09-22T03:20:06.609Z,11.30
2018-09-22T03:22:35.579Z,11.30
2018-09-22T03:25:04.480Z,11.20
2018-09-22T03:27:33.380Z,11.20
2018-09-22T03:30:02.244Z,11.20
2018-09-22T03:32:31.224Z,11.20
2018-09-22T03:35:00.094Z,11.20
2018-09-22T03:37:28.989Z,11.10
2018-09-22T03:39:58.050Z,11.10
2018-09-22T03:42:26.917Z,11.10
2018-09-22T03:44:55.748Z,11.10
2018-09-22T03:47:24.632Z,11.00
2018-09-22T03:49:53.546Z,11.00
2018-09-22T03:52:22.365Z,11.00
2018-09-22T03:54:51.210Z,11.00
2018-09-22T03:57:20.127Z,11.00
2018-09-22T03:59:49.051Z,10.90
2018-09-22T04:02:17.869Z,11.00
2018-09-22T04:04:46.825Z,10.90
2018-09-22T04:07:15.613Z,10.90
2018-09-22T04:09:44.558Z,10.80
2018-09-22T04:12:13.469Z,10.70
2018-09-22T04:14:42.623Z,10.70
2018-09-22T04:17:11.522Z,10.70
2018-09-22T04:19:40.514Z,10.70
2018-09-22T04:22:09.450Z,10.70
2018-09-22T04:24:38.349Z,10.70
2018-09-22T04:27:07.368Z,10.70
2018-09-22T04:29:36.202Z,10.70
2018-09-22T04:32:05.067Z,10.80
2018-09-22T04:34:34.006Z,10.80
2018-09-22T04:37:03.045Z,10.80
2018-09-22T04:39:31.914Z,10.80
2018-09-22T04:42:00.837Z,10.80
2018-09-22T04:44:29.886Z,10.80
2018-09-22T04:46:58.830Z,10.80
2018-09-22T04:49:27.777Z,10.90
2018-09-22T04:51:56.629Z,10.90
2018-09-22T04:54:25.442Z,10.90
2018-09-22T04:56:54.297Z,10.90
2018-09-22T04:59:23.125Z,10.90
2018-09-22T05:01:52.039Z,10.80
2018-09-22T05:04:20.841Z,10.80
2018-09-22T05:06:49.685Z,10.80
2018-09-22T05:09:18.573Z,10.80
2018-09-22T05:11:47.469Z,10.80
2018-09-22T05:14:16.351Z,10.80
2018-09-22T05:16:45.165Z,10.80
2018-09-22T05:19:14.057Z,10.80
2018-09-22T05:21:42.993Z,10.80
2018-09-22T05:24:11.876Z,10.90
2018-09-22T05:26:40.882Z,10.90
2018-09-22T05:29:09.686Z,10.90
2018-09-22T05:31:38.526Z,10.90
2018-09-22T05:34:07.417Z,10.90
2018-09-22T05:36:36.465Z,10.90
2018-09-22T05:39:07.697Z,11.00
2018-09-22T05:41:36.621Z,11.00
2018-09-22T05:44:05.570Z,11.00
2018-09-22T05:46:34.601Z,11.00
2018-09-22T05:49:03.903Z,11.00
2018-09-22T05:51:32.740Z,11.10
2018-09-22T05:54:01.594Z,11.10
2018-09-22T05:56:30.418Z,11.10
2018-09-22T05:58:59.253Z,11.10
2018-09-22T06:01:28.314Z,11.20
2018-09-22T06:03:57.330Z,11.20
2018-09-22T06:06:26.102Z,11.30
2018-09-22T06:08:54.992Z,11.30
2018-09-22T06:11:23.864Z,11.30
2018-09-22T06:13:52.654Z,11.40
2018-09-22T06:16:21.522Z,11.40
2018-09-22T06:18:50.356Z,11.50
2018-09-22T06:21:19.161Z,11.50
2018-09-22T06:23:48.051Z,11.60
2018-09-22T06:26:17.042Z,11.60
2018-09-22T06:28:46.014Z,11.60
2018-09-22T06:31:14.760Z,11.60
2018-09-22T06:33:43.658Z,11.60
2018-09-22T06:36:12.554Z,11.60
2018-09-22T06:38:41.549Z,11.70
2018-09-22T06:41:10.295Z,11.80
2018-09-22T06:43:39.241Z,11.80
2018-09-22T06:46:08.516Z,11.80
2018-09-22T06:48:37.442Z,11.90
2018-09-22T06:51:06.937Z,11.90
2018-09-22T06:56:11.139Z,12.00
2018-09-22T06:58:43.348Z,12.00
2018-09-22T07:01:12.242Z,12.10
2018-09-22T07:03:42.260Z,12.10
2018-09-22T07:06:11.271Z,12.20
2018-09-22T07:08:40.156Z,12.20
2018-09-22T07:11:09.152Z,12.30
2018-09-22T07:13:37.974Z,12.30
2018-09-22T07:16:07.060Z,12.30
2018-09-22T07:18:36.410Z,12.40
2018-09-22T07:21:06.935Z,12.50
2018-09-22T07:23:35.962Z,12.60
2018-09-22T07:26:05.295Z,12.60
2018-09-22T07:28:34.234Z,12.70
2018-09-22T07:31:03.355Z,12.70
2018-09-22T07:33:32.771Z,12.80
2018-09-22T07:36:02.203Z,12.90
2018-09-22T07:38:30.994Z,12.90
2018-09-22T07:41:00.046Z,13.00
2018-09-22T07:43:29.109Z,13.00
2018-09-22T07:45:58.350Z,13.10
2018-09-22T07:48:27.305Z,13.10
2018-09-22T07:50:56.205Z,13.10
2018-09-22T07:53:25.101Z,13.10
2018-09-22T07:55:53.873Z,13.10
2018-09-22T07:58:22.686Z,13.20
2018-09-22T08:00:51.572Z,13.20
2018-09-22T08:03:22.436Z,13.30
2018-09-22T08:05:53.398Z,13.30
2018-09-22T08:08:22.453Z,13.40
2018-09-22T08:10:51.489Z,13.40
2018-09-22T08:13:20.434Z,13.40
2018-09-22T08:15:49.426Z,13.50
2018-09-22T08:18:18.302Z,13.50
2018-09-22T08:20:47.141Z,13.40
2018-09-22T08:23:16.145Z,13.40
2018-09-22T08:25:46.392Z,13.40
2018-09-22T08:28:17.265Z,13.40
2018-09-22T08:30:46.262Z,13.50
2018-09-22T08:33:15.109Z,13.60
2018-09-22T08:35:43.979Z,13.70
2018-09-22T08:38:12.966Z,13.70
2018-09-22T08:40:41.957Z,13.90
2018-09-22T08:43:11.038Z,13.90
2018-09-22T08:45:40.090Z,13.90
2018-09-22T08:48:09.014Z,14.00
2018-09-22T08:50:37.888Z,14.10
2018-09-22T08:53:07.836Z,14.20
2018-09-22T08:55:36.838Z,14.20
2018-09-22T08:58:05.709Z,14.20
2018-09-22T09:00:36.637Z,14.30
2018-09-22T09:03:05.434Z,14.40
2018-09-22T09:05:39.443Z,14.50
2018-09-22T09:08:08.910Z,14.60
2018-09-22T09:10:37.907Z,14.70
2018-09-22T09:13:07.091Z,14.80
2018-09-22T09:15:44.951Z,14.90
2018-09-22T09:18:13.920Z,15.00
2018-09-22T09:20:42.903Z,15.00
2018-09-22T09:23:11.941Z,15.10
2018-09-22T09:25:40.837Z,15.20
2018-09-22T09:28:14.170Z,15.30
2018-09-22T09:30:43.126Z,15.30
2018-09-22T09:33:12.100Z,15.40
2018-09-22T09:35:40.968Z,15.50
2018-09-22T09:38:10.074Z,15.60
2018-09-22T09:40:39.067Z,15.70
2018-09-22T09:43:08.036Z,15.80
2018-09-22T09:45:37.122Z,15.80
2018-09-22T09:48:05.974Z,15.80
2018-09-22T09:50:34.703Z,15.80
2018-09-22T09:53:03.506Z,15.80
2018-09-22T09:55:32.322Z,15.80
2018-09-22T09:58:01.185Z,15.80
2018-09-22T10:00:37.501Z,15.90
2018-09-22T10:03:06.385Z,15.90
2018-09-22T10:05:35.534Z,15.90
2018-09-22T10:08:07.097Z,15.80
2018-09-22T10:10:36.128Z,15.80
2018-09-22T10:13:04.981Z,15.70
2018-09-22T10:15:33.902Z,15.70
2018-09-22T10:18:02.806Z,15.70
2018-09-22T10:20:31.953Z,15.80
2018-09-22T10:23:02.807Z,15.80
2018-09-22T10:25:31.660Z,15.90
2018-09-22T10:28:00.703Z,16.00
2018-09-22T10:30:29.629Z,16.20
2018-09-22T10:32:58.517Z,16.30
2018-09-22T10:35:27.433Z,16.40
2018-09-22T10:37:56.374Z,16.50
2018-09-22T10:40:25.347Z,16.60
2018-09-22T10:42:54.353Z,16.70
2018-09-22T10:45:23.377Z,16.80
2018-09-22T10:47:52.253Z,16.80
2018-09-22T10:50:21.122Z,16.70
2018-09-22T10:52:50.216Z,16.70
2018-09-22T10:55:21.925Z,16.70
2018-09-22T10:57:50.787Z,16.70
2018-09-22T11:00:19.569Z,16.70
2018-09-22T11:02:48.345Z,16.80
2018-09-22T11:05:17.405Z,16.80
2018-09-22T11:07:48.347Z,16.70
2018-09-22T11:10:17.294Z,16.70
2018-09-22T11:12:46.402Z,16.70
2018-09-22T11:15:15.583Z,16.80
2018-09-22T11:17:44.788Z,16.70
2018-09-22T11:20:13.981Z,16.80
2018-09-22T11:22:42.954Z,16.90
2018-09-22T11:25:11.938Z,17.00
2018-09-22T11:27:41.104Z,17.00
2018-09-22T11:30:10.090Z,17.00
2018-09-22T11:32:39.170Z,17.00
2018-09-22T11:35:08.027Z,17.00
2018-09-22T11:37:37.026Z,17.10
2018-09-22T11:40:06.037Z,17.10
2018-09-22T11:42:34.926Z,17.20
2018-09-22T11:45:03.819Z,17.20
2018-09-22T11:47:32.807Z,17.20
2018-09-22T11:50:01.725Z,17.00
2018-09-22T11:52:30.601Z,16.90
2018-09-22T11:54:59.675Z,16.90
2018-09-22T11:57:28.650Z,16.90
2018-09-22T11:59:58.733Z,16.80
2018-09-22T12:02:27.765Z,17.00
2018-09-22T12:04:56.855Z,17.00
2018-09-22T12:07:25.774Z,17.20
2018-09-22T12:09:54.808Z,17.30
2018-09-22T12:12:23.822Z,17.40
2018-09-22T12:14:52.618Z,17.20
2018-09-22T12:17:25.579Z,17.30
2018-09-22T12:19:54.597Z,17.30
2018-09-22T12:22:23.548Z,17.30
2018-09-22T12:24:52.598Z,17.30
2018-09-22T12:27:21.582Z,17.20
2018-09-22T12:29:50.470Z,17.10
2018-09-22T12:32:19.418Z,17.20
2018-09-22T12:34:48.359Z,17.10
2018-09-22T12:37:17.328Z,17.20
2018-09-22T12:39:46.321Z,17.20
2018-09-22T12:42:15.270Z,17.40
2018-09-22T12:44:44.134Z,17.50
2018-09-22T12:47:13.115Z,17.50
2018-09-22T12:49:42.082Z,17.40
2018-09-22T12:52:13.187Z,17.40
2018-09-22T12:54:42.220Z,17.60
2018-09-22T12:57:11.366Z,17.80
2018-09-22T12:59:40.289Z,17.80
2018-09-22T13:02:09.156Z,17.70
2018-09-22T13:04:38.198Z,17.80
2018-09-22T13:07:07.523Z,17.70
2018-09-22T13:09:36.527Z,17.70
2018-09-22T13:12:05.567Z,17.60
2018-09-22T13:14:34.635Z,17.50
2018-09-22T13:17:03.504Z,17.30
2018-09-22T13:19:32.814Z,17.20
2018-09-22T13:22:01.768Z,17.20
2018-09-22T13:24:30.720Z,17.10
2018-09-22T13:27:01.821Z,17.00
2018-09-22T13:29:30.842Z,17.00
2018-09-22T13:31:59.723Z,16.90
2018-09-22T13:34:28.694Z,16.90
2018-09-22T13:36:57.734Z,16.80
2018-09-22T13:39:26.677Z,16.80
2018-09-22T13:41:55.682Z,16.90
2018-09-22T13:44:24.605Z,16.90
2018-09-22T13:46:53.406Z,17.00
2018-09-22T13:49:24.416Z,17.10
2018-09-22T13:51:53.269Z,17.20
2018-09-22T13:54:22.059Z,17.40
2018-09-22T13:56:51.091Z,17.40
2018-09-22T13:59:19.922Z,17.50
2018-09-22T14:01:48.675Z,17.40
2018-09-22T14:04:17.618Z,17.40
2018-09-22T14:06:46.750Z,17.40
2018-09-22T14:09:15.773Z,17.40
2018-09-22T14:11:44.821Z,17.40
2018-09-22T14:14:13.719Z,17.30
2018-09-22T14:16:42.621Z,17.20
2018-09-22T14:19:11.458Z,17.10
2018-09-22T14:21:40.463Z,17.00
2018-09-22T14:24:09.572Z,16.90
2018-09-22T14:26:38.562Z,16.80
2018-09-22T14:29:23.573Z,16.50
2018-09-22T14:31:52.651Z,16.00
2018-09-22T14:34:43.410Z,15.70
2018-09-22T14:37:12.450Z,15.40
2018-09-22T14:39:41.462Z,15.10
2018-09-22T14:42:10.482Z,14.90
2018-09-22T14:44:39.442Z,14.90
2018-09-22T14:47:08.440Z,15.00
2018-09-22T14:49:37.434Z,15.10
2018-09-22T14:52:06.534Z,15.40
2018-09-22T14:54:35.491Z,15.50
2018-09-22T14:57:04.442Z,15.70
2018-09-22T14:59:33.398Z,16.00
2018-09-22T15:02:02.464Z,16.20
2018-09-22T15:04:31.490Z,16.30
2018-09-22T15:07:04.520Z,16.50
2018-09-22T15:09:33.442Z,16.50
2018-09-22T15:12:02.478Z,16.50
2018-09-22T15:14:31.538Z,16.50
2018-09-22T15:17:00.720Z,16.50
2018-09-22T15:19:29.846Z,16.50
2018-09-22T15:21:58.922Z,16.50
2018-09-22T15:24:28.162Z,16.50
2018-09-22T15:26:57.176Z,16.50
2018-09-22T15:29:26.250Z,16.50
2018-09-22T15:31:55.300Z,16.60
2018-09-22T15:34:24.465Z,16.60
2018-09-22T15:36:57.402Z,16.70
2018-09-22T15:39:26.406Z,16.60
2018-09-22T15:41:55.543Z,16.60
2018-09-22T15:44:24.591Z,16.60
2018-09-22T15:46:57.905Z,16.70
2018-09-22T15:49:26.902Z,16.70
2018-09-22T15:51:55.918Z,16.80
2018-09-22T15:54:24.922Z,16.70
2018-09-22T15:56:53.890Z,16.60
2018-09-22T15:59:22.852Z,16.60
2018-09-22T16:01:51.828Z,16.60
2018-09-22T16:04:20.786Z,16.60
2018-09-22T16:06:49.726Z,16.60
2018-09-22T16:09:19.740Z,16.70
2018-09-22T16:11:48.781Z,16.60
2018-09-22T16:14:18.178Z,16.60
2018-09-22T16:16:47.093Z,16.60
2018-09-22T16:19:16.042Z,16.50
2018-09-22T16:21:45.205Z,16.50
2018-09-22T16:24:14.370Z,16.50
2018-09-22T16:26:43.622Z,16.50
2018-09-22T16:29:12.562Z,16.40
2018-09-22T16:31:41.670Z,16.40
2018-09-22T16:34:11.535Z,16.40
2018-09-22T16:36:40.590Z,16.40
2018-09-22T16:39:10.682Z,16.30
2018-09-22T16:41:39.784Z,16.30
2018-09-22T16:44:08.783Z,16.20
2018-09-22T16:46:37.787Z,16.20
2018-09-22T16:49:06.788Z,16.10
2018-09-22T16:51:35.786Z,16.10
2018-09-22T16:54:04.751Z,16.10
2018-09-22T16:56:33.824Z,16.10
2018-09-22T16:59:02.838Z,16.00
2018-09-22T17:01:31.870Z,16.00
2018-09-22T17:04:00.866Z,16.00
2018-09-22T17:06:29.787Z,16.00
2018-09-22T17:08:58.799Z,15.90
2018-09-22T17:11:27.811Z,15.90
2018-09-22T17:13:56.823Z,15.80
2018-09-22T17:16:25.817Z,15.80
2018-09-22T17:18:54.722Z,15.80
2018-09-22T17:21:23.780Z,15.80
2018-09-22T17:23:53.018Z,15.80
2018-09-22T17:26:22.046Z,15.80
2018-09-22T17:28:50.990Z,15.80
2018-09-22T17:31:20.001Z,15.70
2018-09-22T17:33:48.929Z,15.60
2018-09-22T17:36:17.861Z,15.50
2018-09-22T17:38:46.810Z,15.40
2018-09-22T17:41:16.050Z,15.20
2018-09-22T17:43:45.047Z,15.10
2018-09-22T17:46:14.004Z,14.90
2018-09-22T17:48:45.050Z,14.70
2018-09-22T17:51:13.990Z,14.50
2018-09-22T17:53:42.965Z,14.40
2018-09-22T17:56:12.736Z,14.20
2018-09-22T17:58:41.786Z,14.00
2018-09-22T18:01:10.782Z,13.90
2018-09-22T18:03:39.811Z,13.80
2018-09-22T18:06:08.743Z,13.80
2018-09-22T18:08:37.802Z,13.70
2018-09-22T18:11:06.926Z,13.70
2018-09-22T18:16:11.249Z,13.60
2018-09-22T18:18:40.169Z,13.50
2018-09-22T18:21:09.362Z,13.50
2018-09-22T18:23:38.437Z,13.50
2018-09-22T18:26:07.390Z,13.40
2018-09-22T18:28:36.345Z,13.40
2018-09-22T18:31:06.690Z,13.30
2018-09-22T18:33:35.718Z,13.30
2018-09-22T18:36:04.678Z,13.30
2018-09-22T18:38:33.654Z,13.20
2018-09-22T18:41:02.678Z,13.20
2018-09-22T18:43:32.722Z,13.20
2018-09-22T18:46:01.771Z,13.20
2018-09-22T18:48:31.022Z,13.30
2018-09-22T18:51:00.307Z,13.30
2018-09-22T18:53:29.275Z,13.30
2018-09-22T18:55:58.371Z,13.30
2018-09-22T18:58:27.329Z,13.40
2018-09-22T19:00:56.302Z,13.40
2018-09-22T19:03:25.323Z,13.50
2018-09-22T19:05:54.331Z,13.50
2018-09-22T19:08:23.521Z,13.50
2018-09-22T19:10:52.558Z,13.60
2018-09-22T19:13:39.573Z,13.50
2018-09-22T19:16:17.139Z,13.50
2018-09-22T19:18:51.064Z,13.40
2018-09-22T19:21:25.433Z,13.40
2018-09-22T19:24:01.956Z,13.40
2018-09-22T19:26:37.356Z,13.50
2018-09-22T19:29:14.225Z,13.50
2018-09-22T19:31:46.502Z,13.60
2018-09-22T19:34:21.234Z,13.60
2018-09-22T19:36:58.242Z,13.60
2018-09-22T19:40:02.515Z,13.50
2018-09-22T19:42:40.019Z,13.50
2018-09-22T19:45:19.647Z,13.50
2018-09-22T19:48:54.822Z,13.50
2018-09-22T19:51:25.419Z,13.50
2018-09-22T19:53:55.704Z,13.40
2018-09-22T19:56:24.768Z,13.40
2018-09-22T19:58:53.702Z,13.40
2018-09-22T20:01:22.745Z,13.40
2018-09-22T20:03:51.766Z,13.40
2018-09-22T20:06:20.790Z,13.50
2018-09-22T20:08:49.794Z,13.40
2018-09-22T20:11:18.805Z,13.40
2018-09-22T20:13:47.965Z,13.40
2018-09-22T20:16:16.962Z,13.40
2018-09-22T20:18:46.300Z,13.40
2018-09-22T20:21:15.278Z,13.40
2018-09-22T20:23:44.255Z,13.40
2018-09-22T20:26:13.399Z,13.40
2018-09-22T20:28:44.951Z,13.40
2018-09-22T20:31:13.894Z,13.40
2018-09-22T20:33:43.366Z,13.40
2018-09-22T20:36:12.702Z,13.40
2018-09-22T20:38:41.939Z,13.40
2018-09-22T20:41:11.434Z,13.40
2018-09-22T20:43:40.446Z,13.40
2018-09-22T20:46:10.169Z,13.40
2018-09-22T20:48:39.428Z,13.40
2018-09-22T20:51:08.597Z,13.40
2018-09-22T20:53:37.636Z,13.40
2018-09-22T20:56:06.790Z,13.40
2018-09-22T20:58:36.142Z,13.40
2018-09-22T21:01:05.122Z,13.40
2018-09-22T21:03:37.262Z,13.40
2018-09-22T21:06:06.549Z,13.30
2018-09-22T21:08:35.642Z,13.40
2018-09-22T21:11:04.646Z,13.30
2018-09-22T21:13:33.997Z,13.30
2018-09-22T21:16:02.933Z,13.30
2018-09-22T21:18:34.843Z,13.30
2018-09-22T21:21:03.886Z,13.20
2018-09-22T21:23:33.067Z,13.30
2018-09-22T21:26:02.023Z,13.20
2018-09-22T21:28:31.066Z,13.20
2018-09-22T21:31:00.083Z,13.20
2018-09-22T21:33:29.038Z,13.20
2018-09-22T21:35:58.185Z,13.20
2018-09-22T21:38:27.162Z,13.20
2018-09-22T21:40:56.208Z,13.20
2018-09-22T21:43:31.682Z,13.20
2018-09-22T21:46:00.674Z,13.10
2018-09-22T21:48:30.286Z,13.10
2018-09-22T21:50:59.379Z,13.10
2018-09-22T21:53:28.405Z,13.10
2018-09-22T21:55:57.365Z,13.10
2018-09-22T21:58:26.313Z,13.10
2018-09-22T22:00:55.246Z,13.10
2018-09-22T22:03:24.350Z,13.10
2018-09-22T22:05:53.333Z,13.10
2018-09-22T22:08:22.266Z,13.10
2018-09-22T22:10:51.246Z,13.10
2018-09-22T22:13:20.270Z,13.10
2018-09-22T22:15:49.677Z,13.10
2018-09-22T22:18:19.666Z,13.10
2018-09-22T22:20:48.798Z,13.10
2018-09-22T22:23:17.842Z,13.10
2018-09-22T22:25:46.775Z,13.10
2018-09-22T22:28:17.866Z,13.00
2018-09-22T22:30:46.966Z,13.00
2018-09-22T22:33:15.909Z,13.00
2018-09-22T22:35:44.906Z,13.10
2018-09-22T22:38:14.918Z,13.10
2018-09-22T22:40:43.929Z,13.00
2018-09-22T22:43:13.374Z,13.00
2018-09-22T22:45:42.338Z,13.00
2018-09-22T22:48:11.325Z,13.10
2018-09-22T22:50:40.301Z,13.00
2018-09-22T22:53:09.363Z,13.10
2018-09-22T22:55:38.333Z,13.10
2018-09-22T22:58:07.333Z,13.00
2018-09-22T23:00:36.318Z,13.00
2018-09-22T23:03:07.434Z,13.00
2018-09-22T23:05:36.345Z,13.00
2018-09-22T23:08:05.269Z,13.00
2018-09-22T23:10:34.278Z,13.00
2018-09-22T23:13:03.233Z,13.00
2018-09-22T23:15:32.363Z,13.00
2018-09-22T23:18:01.294Z,13.00
2018-09-22T23:20:30.266Z,13.10
2018-09-22T23:22:59.210Z,13.10
2018-09-22T23:25:28.234Z,13.10
2018-09-22T23:27:57.226Z,13.00
2018-09-22T23:30:26.173Z,13.00
2018-09-22T23:32:55.127Z,13.00
2018-09-22T23:35:25.218Z,13.00
2018-09-22T23:37:54.241Z,13.00
2018-09-22T23:40:23.234Z,13.00
2018-09-22T23:42:52.218Z,13.00
2018-09-22T23:45:21.146Z,13.00
2018-09-22T23:47:50.118Z,13.00
2018-09-22T23:50:19.183Z,13.00
2018-09-22T23:52:48.126Z,13.00
2018-09-22T23:55:17.102Z,12.90
2018-09-22T23:57:46.066Z,13.00
